American Falls, Idaho
Current Conditions -  °F | °C
As of 12:53 PM on Monday 22 Dec 2014 (Local Time) from KPIH Reporting Station
Broken Clouds Broken Clouds  
Wind Chill: 34°   Ceiling: 1700
Heat Index: 42°   Visibility: 10mi
Dew Point: 35°   Wind: 16mph
Humidity: 76%   Direction: 280°W
Pressure: 30"   Gusts: NA
Location:  42.79°N, 112.85°W
Report Text: KPIH 221953Z 28014KT 10SM BKN017 BKN035 BKN080 06/02 A3000 RMK AO2 SLP165 T00560017
Loading
Personal Weather Stations






























Interactive Weather Map New forecast layout! Learn more

10-Day Weather Forecast

Advertisements
Track Severe Weather on mobile